This is the latest recevied weather packets stored in our database for station/object CQ0XVC-11. If no packets are shown the sender has not sent any weather packets the latest 1 day(s).
| Time | Temp. | Humidity | Pressure | Rain* | Wind** | Luminosity | Snow |
|---|---|---|---|---|---|---|---|
| 1778026013 | 8.89° C | 73% | 1002.9 hPa | 0 mm | 0.45 m/s, 90° | - | - |
| 1778025976 | 8.89° C | 73% | 1002.9 hPa | 0 mm | 0.45 m/s, 90° | - | - |
| 1778025673 | 8.89° C | 78% | 1003 hPa | 0 mm | 0.45 m/s, 90° | - | - |
| 1778025371 | 8.89° C | 75% | 1003.2 hPa | 0 mm | 0.89 m/s, 33° | - | - |
| 1778025128 | 8.89° C | 73% | 1003.2 hPa | 0 mm | 1.34 m/s, 45° | - | - |
| 1778025069 | 8.89° C | 73% | 1003.2 hPa | 0 mm | 1.34 m/s, 45° | - | - |
| 1778024799 | 8.89° C | 71% | 1003.2 hPa | 0 mm | 0.45 m/s, 67° | - | - |
| 1778024767 | 8.89° C | 71% | 1003.2 hPa | 0 mm | 0.45 m/s, 67° | - | - |
| 1778024464 | 8.89° C | 73% | 1003.1 hPa | 0 mm | 0.45 m/s, 90° | - | - |
| 1778024163 | 9.44° C | 74% | 1003.4 hPa | 0 mm | 1.34 m/s, 45° | - | - |
| 1778023558 | 9.44° C | 73% | 1003.3 hPa | 0 mm | 0.45 m/s, 90° | - | - |
| 1778023288 | 9.44° C | 74% | 1003.5 hPa | 0 mm | 0.89 m/s, 90° | - | - |
| 1778023256 | 9.44° C | 74% | 1003.5 hPa | 0 mm | 0.89 m/s, 90° | - | - |
| 1778022954 | 9.44° C | 72% | 1003.4 hPa | 0 mm | 0.45 m/s, 78° | - | - |
| 1778022651 | 9.44° C | 72% | 1003.3 hPa | 0 mm | 0.89 m/s, 78° | - | - |
| 1778022386 | 9.44° C | 71% | 1003.6 hPa | 0 mm | 1.79 m/s, 67° | - | - |
| 1778022349 | 9.44° C | 71% | 1003.6 hPa | 0 mm | 1.79 m/s, 67° | - | - |
| 1778022047 | 9.44° C | 71% | 1003.5 hPa | 0 mm | 0.45 m/s, 90° | - | - |
| 1778021792 | 9.44° C | 71% | 1003.4 hPa | 0 mm | 1.34 m/s, 135° | - | - |
| 1778021745 | 9.44° C | 71% | 1003.4 hPa | 0 mm | 1.34 m/s, 135° | - | - |
| 1778021443 | 9.44° C | 68% | 1003.6 hPa | 0 mm | 1.34 m/s, 146° | - | - |
| 1778021173 | 9.44° C | 66% | 1003.6 hPa | 0 mm | 0.45 m/s, 180° | - | - |
| 1778021141 | 9.44° C | 66% | 1003.6 hPa | 0 mm | 0.45 m/s, 180° | - | - |
| 1778020838 | 10° C | 66% | 1003.8 hPa | 0 mm | 0.45 m/s, 180° | - | - |
| 1778020536 | 10° C | 65% | 1003.9 hPa | 0 mm | 0.45 m/s, 180° | - | - |
* Rain since midnight (hover to see other rain measurements)
** Current wind speed in m/s (hover to see current wind gust speed)